sensor_id;sensor_type;location;lat;lon;timestamp;P1;durP1;ratioP1;P2;durP2;ratioP2
47431;SDS011;33183;52.290;6.144;2023-03-05T00:01:32;6.78;;;3.55;;
47431;SDS011;33183;52.290;6.144;2023-03-05T00:03:57;7.38;;;3.67;;
47431;SDS011;33183;52.290;6.144;2023-03-05T00:06:24;8.50;;;3.67;;
47431;SDS011;33183;52.290;6.144;2023-03-05T00:08:50;5.85;;;2.70;;
47431;SDS011;33183;52.290;6.144;2023-03-05T00:11:17;5.72;;;3.30;;
47431;SDS011;33183;52.290;6.144;2023-03-05T00:13:44;6.13;;;3.08;;
47431;SDS011;33183;52.290;6.144;2023-03-05T00:16:11;5.97;;;3.63;;
47431;SDS011;33183;52.290;6.144;2023-03-05T00:18:38;6.50;;;3.00;;
47431;SDS011;33183;52.290;6.144;2023-03-05T00:21:04;5.13;;;2.75;;
47431;SDS011;33183;52.290;6.144;2023-03-05T00:23:38;5.70;;;3.50;;
47431;SDS011;33183;52.290;6.144;2023-03-05T00:26:03;5.90;;;3.45;;
47431;SDS011;33183;52.290;6.144;2023-03-05T00:28:31;7.00;;;3.30;;
47431;SDS011;33183;52.290;6.144;2023-03-05T00:30:58;4.40;;;2.55;;
47431;SDS011;33183;52.290;6.144;2023-03-05T00:33:24;6.10;;;3.10;;
47431;SDS011;33183;52.290;6.144;2023-03-05T00:35:50;5.07;;;3.03;;
47431;SDS011;33183;52.290;6.144;2023-03-05T00:38:15;5.40;;;2.85;;
47431;SDS011;33183;52.290;6.144;2023-03-05T00:40:40;6.15;;;2.95;;
47431;SDS011;33183;52.290;6.144;2023-03-05T00:43:06;5.75;;;3.15;;
47431;SDS011;33183;52.290;6.144;2023-03-05T00:45:31;4.50;;;2.53;;
47431;SDS011;33183;52.290;6.144;2023-03-05T00:47:57;4.80;;;2.60;;
47431;SDS011;33183;52.290;6.144;2023-03-05T00:50:23;4.63;;;2.50;;
47431;SDS011;33183;52.290;6.144;2023-03-05T00:52:50;4.97;;;2.70;;
47431;SDS011;33183;52.290;6.144;2023-03-05T00:55:16;5.10;;;2.75;;
47431;SDS011;33183;52.290;6.144;2023-03-05T00:57:41;5.20;;;2.50;;
47431;SDS011;33183;52.290;6.144;2023-03-05T01:00:07;6.20;;;2.90;;
47431;SDS011;33183;52.290;6.144;2023-03-05T01:02:33;5.43;;;2.70;;
47431;SDS011;33183;52.290;6.144;2023-03-05T01:04:58;4.72;;;2.58;;
47431;SDS011;33183;52.290;6.144;2023-03-05T01:07:23;4.85;;;2.58;;
47431;SDS011;33183;52.290;6.144;2023-03-05T01:09:48;4.75;;;2.67;;
47431;SDS011;33183;52.290;6.144;2023-03-05T01:12:14;4.28;;;2.30;;
47431;SDS011;33183;52.290;6.144;2023-03-05T01:14:39;4.30;;;2.67;;
47431;SDS011;33183;52.290;6.144;2023-03-05T01:17:04;3.13;;;2.33;;
47431;SDS011;33183;52.290;6.144;2023-03-05T01:19:30;4.70;;;2.70;;
47431;SDS011;33183;52.290;6.144;2023-03-05T01:21:55;4.50;;;2.10;;
47431;SDS011;33183;52.290;6.144;2023-03-05T01:24:20;5.15;;;2.97;;
47431;SDS011;33183;52.290;6.144;2023-03-05T01:26:46;5.47;;;2.65;;
47431;SDS011;33183;52.290;6.144;2023-03-05T01:29:11;4.97;;;2.65;;
47431;SDS011;33183;52.290;6.144;2023-03-05T01:31:36;3.22;;;1.80;;
47431;SDS011;33183;52.290;6.144;2023-03-05T01:34:02;5.20;;;2.25;;
47431;SDS011;33183;52.290;6.144;2023-03-05T01:36:27;4.72;;;2.72;;
47431;SDS011;33183;52.290;6.144;2023-03-05T01:38:52;6.07;;;3.03;;
47431;SDS011;33183;52.290;6.144;2023-03-05T01:41:18;4.47;;;2.20;;
47431;SDS011;33183;52.290;6.144;2023-03-05T01:43:45;3.88;;;2.55;;
47431;SDS011;33183;52.290;6.144;2023-03-05T01:46:33;3.65;;;2.08;;
47431;SDS011;33183;52.290;6.144;2023-03-05T01:49:16;4.35;;;2.30;;
47431;SDS011;33183;52.290;6.144;2023-03-05T01:55:08;4.28;;;2.58;;
47431;SDS011;33183;52.290;6.144;2023-03-05T01:57:17;3.97;;;2.15;;
47431;SDS011;33183;52.290;6.144;2023-03-05T01:59:45;3.97;;;2.08;;
47431;SDS011;33183;52.290;6.144;2023-03-05T02:02:12;3.63;;;2.20;;
47431;SDS011;33183;52.290;6.144;2023-03-05T02:04:48;3.53;;;2.10;;
47431;SDS011;33183;52.290;6.144;2023-03-05T02:07:34;4.13;;;1.95;;
47431;SDS011;33183;52.290;6.144;2023-03-05T02:10:01;3.10;;;1.90;;
47431;SDS011;33183;52.290;6.144;2023-03-05T02:12:38;5.05;;;2.33;;
47431;SDS011;33183;52.290;6.144;2023-03-05T02:15:04;2.85;;;1.95;;
47431;SDS011;33183;52.290;6.144;2023-03-05T02:17:30;3.85;;;2.28;;
47431;SDS011;33183;52.290;6.144;2023-03-05T02:19:57;3.47;;;1.70;;
47431;SDS011;33183;52.290;6.144;2023-03-05T02:22:29;4.32;;;1.92;;
47431;SDS011;33183;52.290;6.144;2023-03-05T02:24:54;4.03;;;1.90;;
47431;SDS011;33183;52.290;6.144;2023-03-05T02:27:20;3.65;;;2.00;;
47431;SDS011;33183;52.290;6.144;2023-03-05T02:29:47;3.95;;;1.83;;
47431;SDS011;33183;52.290;6.144;2023-03-05T02:32:13;4.05;;;2.08;;
47431;SDS011;33183;52.290;6.144;2023-03-05T02:34:38;3.85;;;1.90;;
47431;SDS011;33183;52.290;6.144;2023-03-05T02:37:03;4.70;;;2.30;;
47431;SDS011;33183;52.290;6.144;2023-03-05T02:39:32;3.67;;;1.95;;
47431;SDS011;33183;52.290;6.144;2023-03-05T02:41:58;4.57;;;2.15;;
47431;SDS011;33183;52.290;6.144;2023-03-05T02:44:23;3.55;;;1.60;;
47431;SDS011;33183;52.290;6.144;2023-03-05T02:46:48;4.18;;;2.22;;
47431;SDS011;33183;52.290;6.144;2023-03-05T02:49:14;3.22;;;1.88;;
47431;SDS011;33183;52.290;6.144;2023-03-05T02:51:39;2.65;;;1.85;;
47431;SDS011;33183;52.290;6.144;2023-03-05T02:54:04;2.72;;;1.90;;
47431;SDS011;33183;52.290;6.144;2023-03-05T02:56:30;4.03;;;1.80;;
47431;SDS011;33183;52.290;6.144;2023-03-05T02:58:55;3.97;;;1.90;;
47431;SDS011;33183;52.290;6.144;2023-03-05T03:01:20;4.03;;;1.80;;
47431;SDS011;33183;52.290;6.144;2023-03-05T03:03:46;3.92;;;2.00;;
47431;SDS011;33183;52.290;6.144;2023-03-05T03:06:11;2.78;;;1.63;;
47431;SDS011;33183;52.290;6.144;2023-03-05T03:08:36;3.00;;;1.75;;
47431;SDS011;33183;52.290;6.144;2023-03-05T03:11:03;2.83;;;1.58;;
47431;SDS011;33183;52.290;6.144;2023-03-05T03:13:29;4.22;;;2.42;;
47431;SDS011;33183;52.290;6.144;2023-03-05T03:16:02;2.78;;;1.38;;
47431;SDS011;33183;52.290;6.144;2023-03-05T03:18:29;3.63;;;1.90;;
47431;SDS011;33183;52.290;6.144;2023-03-05T03:20:54;3.35;;;1.70;;
47431;SDS011;33183;52.290;6.144;2023-03-05T03:23:19;3.35;;;1.88;;
47431;SDS011;33183;52.290;6.144;2023-03-05T03:25:44;4.63;;;1.73;;
47431;SDS011;33183;52.290;6.144;2023-03-05T03:28:10;3.55;;;1.65;;
47431;SDS011;33183;52.290;6.144;2023-03-05T03:30:35;3.15;;;1.75;;
47431;SDS011;33183;52.290;6.144;2023-03-05T03:33:00;3.53;;;1.80;;
47431;SDS011;33183;52.290;6.144;2023-03-05T03:35:25;2.65;;;1.67;;
47431;SDS011;33183;52.290;6.144;2023-03-05T03:37:51;1.83;;;1.45;;
47431;SDS011;33183;52.290;6.144;2023-03-05T03:40:16;3.30;;;1.67;;
47431;SDS011;33183;52.290;6.144;2023-03-05T03:42:42;2.95;;;1.90;;
47431;SDS011;33183;52.290;6.144;2023-03-05T03:45:07;3.80;;;1.65;;
47431;SDS011;33183;52.290;6.144;2023-03-05T03:47:33;4.47;;;2.13;;
47431;SDS011;33183;52.290;6.144;2023-03-05T03:49:58;2.55;;;1.30;;
47431;SDS011;33183;52.290;6.144;2023-03-05T03:52:23;3.75;;;1.83;;
47431;SDS011;33183;52.290;6.144;2023-03-05T03:54:49;2.50;;;1.50;;
47431;SDS011;33183;52.290;6.144;2023-03-05T03:57:16;3.42;;;1.58;;
47431;SDS011;33183;52.290;6.144;2023-03-05T03:59:41;3.88;;;1.67;;
47431;SDS011;33183;52.290;6.144;2023-03-05T04:02:09;2.90;;;1.45;;
47431;SDS011;33183;52.290;6.144;2023-03-05T04:04:34;4.15;;;1.45;;
47431;SDS011;33183;52.290;6.144;2023-03-05T04:06:59;3.45;;;1.88;;
47431;SDS011;33183;52.290;6.144;2023-03-05T04:09:25;3.03;;;1.40;;
47431;SDS011;33183;52.290;6.144;2023-03-05T04:11:50;1.90;;;1.50;;
47431;SDS011;33183;52.290;6.144;2023-03-05T04:14:15;3.00;;;1.58;;
47431;SDS011;33183;52.290;6.144;2023-03-05T04:16:43;4.22;;;1.50;;
47431;SDS011;33183;52.290;6.144;2023-03-05T04:19:09;3.63;;;1.75;;
47431;SDS011;33183;52.290;6.144;2023-03-05T04:21:34;4.05;;;1.88;;
47431;SDS011;33183;52.290;6.144;2023-03-05T04:23:59;3.15;;;1.63;;
47431;SDS011;33183;52.290;6.144;2023-03-05T04:26:24;3.83;;;1.55;;
47431;SDS011;33183;52.290;6.144;2023-03-05T04:28:50;2.70;;;1.60;;
47431;SDS011;33183;52.290;6.144;2023-03-05T04:31:15;2.78;;;1.17;;
47431;SDS011;33183;52.290;6.144;2023-03-05T04:33:41;2.85;;;1.42;;
47431;SDS011;33183;52.290;6.144;2023-03-05T04:36:06;2.60;;;1.20;;
47431;SDS011;33183;52.290;6.144;2023-03-05T04:38:32;5.03;;;2.13;;
47431;SDS011;33183;52.290;6.144;2023-03-05T04:40:57;3.75;;;1.63;;
47431;SDS011;33183;52.290;6.144;2023-03-05T04:43:22;3.08;;;1.58;;
47431;SDS011;33183;52.290;6.144;2023-03-05T04:45:47;2.60;;;1.40;;
47431;SDS011;33183;52.290;6.144;2023-03-05T04:48:13;2.95;;;1.50;;
47431;SDS011;33183;52.290;6.144;2023-03-05T04:50:38;3.53;;;1.48;;
47431;SDS011;33183;52.290;6.144;2023-03-05T04:53:04;2.72;;;1.42;;
47431;SDS011;33183;52.290;6.144;2023-03-05T04:55:30;3.33;;;1.52;;
47431;SDS011;33183;52.290;6.144;2023-03-05T04:57:55;3.60;;;1.40;;
47431;SDS011;33183;52.290;6.144;2023-03-05T05:00:20;2.58;;;1.52;;
47431;SDS011;33183;52.290;6.144;2023-03-05T05:02:47;2.05;;;1.20;;
47431;SDS011;33183;52.290;6.144;2023-03-05T05:05:15;3.08;;;1.40;;
47431;SDS011;33183;52.290;6.144;2023-03-05T05:07:45;4.60;;;1.83;;
47431;SDS011;33183;52.290;6.144;2023-03-05T05:10:11;3.72;;;1.50;;
47431;SDS011;33183;52.290;6.144;2023-03-05T05:12:37;2.40;;;1.23;;
47431;SDS011;33183;52.290;6.144;2023-03-05T05:15:02;2.92;;;1.38;;
47431;SDS011;33183;52.290;6.144;2023-03-05T05:17:28;2.75;;;1.45;;
47431;SDS011;33183;52.290;6.144;2023-03-05T05:19:56;3.40;;;1.35;;
47431;SDS011;33183;52.290;6.144;2023-03-05T05:22:22;2.75;;;1.40;;
47431;SDS011;33183;52.290;6.144;2023-03-05T05:24:47;1.88;;;1.20;;
47431;SDS011;33183;52.290;6.144;2023-03-05T05:27:13;2.10;;;1.27;;
47431;SDS011;33183;52.290;6.144;2023-03-05T05:29:38;3.45;;;1.40;;
47431;SDS011;33183;52.290;6.144;2023-03-05T05:32:03;1.80;;;1.00;;
47431;SDS011;33183;52.290;6.144;2023-03-05T05:34:29;2.97;;;1.08;;
47431;SDS011;33183;52.290;6.144;2023-03-05T05:36:54;2.13;;;1.33;;
47431;SDS011;33183;52.290;6.144;2023-03-05T05:39:19;2.85;;;1.45;;
47431;SDS011;33183;52.290;6.144;2023-03-05T05:41:45;3.63;;;1.40;;
47431;SDS011;33183;52.290;6.144;2023-03-05T05:44:14;2.72;;;1.20;;
47431;SDS011;33183;52.290;6.144;2023-03-05T05:46:39;1.70;;;0.95;;
47431;SDS011;33183;52.290;6.144;2023-03-05T05:49:05;2.78;;;1.20;;
47431;SDS011;33183;52.290;6.144;2023-03-05T05:51:30;1.73;;;1.38;;
47431;SDS011;33183;52.290;6.144;2023-03-05T05:53:55;5.03;;;1.40;;
47431;SDS011;33183;52.290;6.144;2023-03-05T05:56:21;2.47;;;0.93;;
47431;SDS011;33183;52.290;6.144;2023-03-05T05:58:47;1.73;;;1.10;;
47431;SDS011;33183;52.290;6.144;2023-03-05T06:01:17;2.22;;;1.23;;
47431;SDS011;33183;52.290;6.144;2023-03-05T06:03:53;3.80;;;1.33;;
47431;SDS011;33183;52.290;6.144;2023-03-05T06:06:20;2.13;;;1.23;;
47431;SDS011;33183;52.290;6.144;2023-03-05T06:08:47;1.98;;;1.10;;
47431;SDS011;33183;52.290;6.144;2023-03-05T06:11:13;1.58;;;1.00;;
47431;SDS011;33183;52.290;6.144;2023-03-05T06:13:38;2.83;;;1.25;;
47431;SDS011;33183;52.290;6.144;2023-03-05T06:16:05;4.38;;;1.13;;
47431;SDS011;33183;52.290;6.144;2023-03-05T06:18:32;2.97;;;1.08;;
47431;SDS011;33183;52.290;6.144;2023-03-05T06:21:00;2.53;;;0.98;;
47431;SDS011;33183;52.290;6.144;2023-03-05T06:23:28;2.67;;;1.33;;
47431;SDS011;33183;52.290;6.144;2023-03-05T06:25:54;2.58;;;1.20;;
47431;SDS011;33183;52.290;6.144;2023-03-05T06:30:48;1.50;;;0.85;;
47431;SDS011;33183;52.290;6.144;2023-03-05T06:33:13;2.40;;;1.20;;
47431;SDS011;33183;52.290;6.144;2023-03-05T06:35:38;2.45;;;1.10;;
47431;SDS011;33183;52.290;6.144;2023-03-05T06:38:05;3.38;;;1.20;;
47431;SDS011;33183;52.290;6.144;2023-03-05T06:40:31;2.15;;;1.10;;
47431;SDS011;33183;52.290;6.144;2023-03-05T06:42:56;3.35;;;1.10;;
47431;SDS011;33183;52.290;6.144;2023-03-05T06:45:21;2.72;;;1.15;;
47431;SDS011;33183;52.290;6.144;2023-03-05T06:47:49;2.03;;;1.10;;
47431;SDS011;33183;52.290;6.144;2023-03-05T06:50:14;3.03;;;1.05;;
47431;SDS011;33183;52.290;6.144;2023-03-05T06:52:40;2.85;;;1.00;;
47431;SDS011;33183;52.290;6.144;2023-03-05T06:55:06;1.65;;;0.95;;
47431;SDS011;33183;52.290;6.144;2023-03-05T06:57:32;1.98;;;1.25;;
47431;SDS011;33183;52.290;6.144;2023-03-05T06:59:57;1.48;;;1.08;;
47431;SDS011;33183;52.290;6.144;2023-03-05T07:02:23;2.65;;;1.23;;
47431;SDS011;33183;52.290;6.144;2023-03-05T07:04:48;2.03;;;1.13;;
47431;SDS011;33183;52.290;6.144;2023-03-05T07:07:13;2.55;;;1.23;;
47431;SDS011;33183;52.290;6.144;2023-03-05T07:09:39;2.05;;;0.88;;
47431;SDS011;33183;52.290;6.144;2023-03-05T07:12:08;2.85;;;1.10;;
47431;SDS011;33183;52.290;6.144;2023-03-05T07:14:37;1.38;;;0.73;;
47431;SDS011;33183;52.290;6.144;2023-03-05T07:17:04;2.13;;;1.02;;
47431;SDS011;33183;52.290;6.144;2023-03-05T07:19:30;3.45;;;1.00;;
47431;SDS011;33183;52.290;6.144;2023-03-05T07:21:55;2.88;;;0.93;;
47431;SDS011;33183;52.290;6.144;2023-03-05T07:24:20;1.55;;;0.93;;
47431;SDS011;33183;52.290;6.144;2023-03-05T07:26:48;3.08;;;0.90;;
47431;SDS011;33183;52.290;6.144;2023-03-05T07:29:13;1.85;;;0.90;;
47431;SDS011;33183;52.290;6.144;2023-03-05T07:31:38;1.23;;;0.90;;
47431;SDS011;33183;52.290;6.144;2023-03-05T07:34:04;2.35;;;0.88;;
47431;SDS011;33183;52.290;6.144;2023-03-05T07:36:30;2.58;;;0.82;;
47431;SDS011;33183;52.290;6.144;2023-03-05T07:38:56;1.45;;;0.75;;
47431;SDS011;33183;52.290;6.144;2023-03-05T07:41:21;2.33;;;1.02;;
47431;SDS011;33183;52.290;6.144;2023-03-05T07:43:48;2.00;;;0.73;;
47431;SDS011;33183;52.290;6.144;2023-03-05T07:46:15;1.83;;;0.93;;
47431;SDS011;33183;52.290;6.144;2023-03-05T07:48:41;2.97;;;1.25;;
47431;SDS011;33183;52.290;6.144;2023-03-05T07:51:08;2.05;;;1.00;;
47431;SDS011;33183;52.290;6.144;2023-03-05T07:53:35;2.63;;;0.80;;
47431;SDS011;33183;52.290;6.144;2023-03-05T07:56:00;1.85;;;0.80;;
47431;SDS011;33183;52.290;6.144;2023-03-05T07:58:25;1.55;;;0.75;;
47431;SDS011;33183;52.290;6.144;2023-03-05T08:00:51;1.73;;;0.73;;
47431;SDS011;33183;52.290;6.144;2023-03-05T08:03:16;1.20;;;0.70;;
47431;SDS011;33183;52.290;6.144;2023-03-05T08:05:42;1.98;;;0.68;;
47431;SDS011;33183;52.290;6.144;2023-03-05T08:08:08;2.83;;;1.00;;
47431;SDS011;33183;52.290;6.144;2023-03-05T08:10:34;1.50;;;0.82;;
47431;SDS011;33183;52.290;6.144;2023-03-05T08:13:00;2.22;;;1.00;;
47431;SDS011;33183;52.290;6.144;2023-03-05T08:15:25;2.13;;;1.20;;
47431;SDS011;33183;52.290;6.144;2023-03-05T08:17:51;2.17;;;1.20;;
47431;SDS011;33183;52.290;6.144;2023-03-05T08:20:16;2.33;;;0.90;;
47431;SDS011;33183;52.290;6.144;2023-03-05T08:22:43;1.60;;;0.90;;
47431;SDS011;33183;52.290;6.144;2023-03-05T08:25:08;1.13;;;0.80;;
47431;SDS011;33183;52.290;6.144;2023-03-05T08:27:36;2.83;;;1.00;;
47431;SDS011;33183;52.290;6.144;2023-03-05T08:30:05;2.42;;;0.80;;
47431;SDS011;33183;52.290;6.144;2023-03-05T08:32:32;4.82;;;1.15;;
47431;SDS011;33183;52.290;6.144;2023-03-05T08:34:57;1.77;;;0.75;;
47431;SDS011;33183;52.290;6.144;2023-03-05T08:37:23;1.58;;;0.88;;
47431;SDS011;33183;52.290;6.144;2023-03-05T08:39:49;2.28;;;0.88;;
47431;SDS011;33183;52.290;6.144;2023-03-05T08:42:14;1.90;;;0.82;;
47431;SDS011;33183;52.290;6.144;2023-03-05T08:44:39;1.88;;;0.85;;
47431;SDS011;33183;52.290;6.144;2023-03-05T08:47:05;1.75;;;0.80;;
47431;SDS011;33183;52.290;6.144;2023-03-05T08:49:30;3.33;;;1.10;;
47431;SDS011;33183;52.290;6.144;2023-03-05T08:51:55;2.25;;;0.80;;
47431;SDS011;33183;52.290;6.144;2023-03-05T08:54:21;1.55;;;0.68;;
47431;SDS011;33183;52.290;6.144;2023-03-05T08:56:46;4.20;;;0.90;;
47431;SDS011;33183;52.290;6.144;2023-03-05T08:59:11;2.17;;;0.98;;
47431;SDS011;33183;52.290;6.144;2023-03-05T09:01:36;1.88;;;0.68;;
47431;SDS011;33183;52.290;6.144;2023-03-05T09:04:02;1.17;;;0.60;;
47431;SDS011;33183;52.290;6.144;2023-03-05T09:06:28;2.90;;;0.90;;
47431;SDS011;33183;52.290;6.144;2023-03-05T09:08:53;2.58;;;0.73;;
47431;SDS011;33183;52.290;6.144;2023-03-05T09:11:19;2.20;;;0.70;;
47431;SDS011;33183;52.290;6.144;2023-03-05T09:13:44;3.88;;;1.10;;
47431;SDS011;33183;52.290;6.144;2023-03-05T09:16:11;3.00;;;0.88;;
47431;SDS011;33183;52.290;6.144;2023-03-05T09:18:38;4.20;;;0.90;;
47431;SDS011;33183;52.290;6.144;2023-03-05T09:21:08;3.35;;;1.15;;
47431;SDS011;33183;52.290;6.144;2023-03-05T09:23:35;2.35;;;0.80;;
47431;SDS011;33183;52.290;6.144;2023-03-05T09:26:00;3.13;;;0.88;;
47431;SDS011;33183;52.290;6.144;2023-03-05T09:28:26;2.38;;;0.70;;
47431;SDS011;33183;52.290;6.144;2023-03-05T09:30:51;2.88;;;1.08;;
47431;SDS011;33183;52.290;6.144;2023-03-05T09:33:17;2.60;;;1.00;;
47431;SDS011;33183;52.290;6.144;2023-03-05T09:35:42;2.40;;;0.85;;
47431;SDS011;33183;52.290;6.144;2023-03-05T09:38:07;2.45;;;0.90;;
47431;SDS011;33183;52.290;6.144;2023-03-05T09:40:43;2.10;;;0.88;;
47431;SDS011;33183;52.290;6.144;2023-03-05T09:43:16;1.85;;;0.90;;
47431;SDS011;33183;52.290;6.144;2023-03-05T09:46:01;2.38;;;0.80;;
47431;SDS011;33183;52.290;6.144;2023-03-05T09:48:38;3.75;;;1.25;;
47431;SDS011;33183;52.290;6.144;2023-03-05T09:51:22;22.40;;;2.95;;
47431;SDS011;33183;52.290;6.144;2023-03-05T09:54:00;4.65;;;1.20;;
47431;SDS011;33183;52.290;6.144;2023-03-05T09:56:28;2.08;;;0.68;;
47431;SDS011;33183;52.290;6.144;2023-03-05T09:58:57;3.70;;;1.10;;
47431;SDS011;33183;52.290;6.144;2023-03-05T10:01:35;3.25;;;0.75;;
47431;SDS011;33183;52.290;6.144;2023-03-05T10:04:17;3.72;;;1.13;;
47431;SDS011;33183;52.290;6.144;2023-03-05T10:06:50;2.35;;;1.00;;
47431;SDS011;33183;52.290;6.144;2023-03-05T10:12:05;3.10;;;0.98;;
47431;SDS011;33183;52.290;6.144;2023-03-05T10:14:33;2.60;;;0.80;;
47431;SDS011;33183;52.290;6.144;2023-03-05T10:19:45;1.92;;;1.02;;
47431;SDS011;33183;52.290;6.144;2023-03-05T10:27:47;1.90;;;0.80;;
47431;SDS011;33183;52.290;6.144;2023-03-05T10:30:17;2.55;;;0.63;;
47431;SDS011;33183;52.290;6.144;2023-03-05T10:35:16;1.70;;;0.60;;
47431;SDS011;33183;52.290;6.144;2023-03-05T10:37:50;2.38;;;0.60;;
47431;SDS011;33183;52.290;6.144;2023-03-05T10:40:22;2.83;;;0.70;;
47431;SDS011;33183;52.290;6.144;2023-03-05T10:42:57;1.75;;;0.98;;
47431;SDS011;33183;52.290;6.144;2023-03-05T10:45:38;1.05;;;0.60;;
47431;SDS011;33183;52.290;6.144;2023-03-05T10:48:08;1.88;;;0.80;;
47431;SDS011;33183;52.290;6.144;2023-03-05T10:51:04;1.65;;;0.70;;
47431;SDS011;33183;52.290;6.144;2023-03-05T10:56:25;3.00;;;0.75;;
47431;SDS011;33183;52.290;6.144;2023-03-05T10:58:52;1.63;;;0.60;;
47431;SDS011;33183;52.290;6.144;2023-03-05T11:01:23;2.85;;;1.20;;
47431;SDS011;33183;52.290;6.144;2023-03-05T11:04:04;2.45;;;0.70;;
47431;SDS011;33183;52.290;6.144;2023-03-05T11:06:32;2.33;;;0.70;;
47431;SDS011;33183;52.290;6.144;2023-03-05T11:09:15;1.05;;;0.50;;
47431;SDS011;33183;52.290;6.144;2023-03-05T11:14:31;1.50;;;0.68;;
47431;SDS011;33183;52.290;6.144;2023-03-05T11:17:01;1.30;;;0.57;;
47431;SDS011;33183;52.290;6.144;2023-03-05T11:19:31;1.10;;;0.50;;
47431;SDS011;33183;52.290;6.144;2023-03-05T11:24:38;2.55;;;0.65;;
47431;SDS011;33183;52.290;6.144;2023-03-05T11:27:22;1.85;;;0.70;;
47431;SDS011;33183;52.290;6.144;2023-03-05T11:29:48;1.05;;;0.55;;
47431;SDS011;33183;52.290;6.144;2023-03-05T11:32:19;1.13;;;0.50;;
47431;SDS011;33183;52.290;6.144;2023-03-05T11:34:47;1.08;;;0.50;;
47431;SDS011;33183;52.290;6.144;2023-03-05T11:37:26;3.45;;;0.65;;
47431;SDS011;33183;52.290;6.144;2023-03-05T11:40:04;2.75;;;0.88;;
47431;SDS011;33183;52.290;6.144;2023-03-05T11:42:42;3.63;;;0.60;;
47431;SDS011;33183;52.290;6.144;2023-03-05T11:45:14;1.77;;;0.50;;
47431;SDS011;33183;52.290;6.144;2023-03-05T11:47:52;1.85;;;0.70;;
47431;SDS011;33183;52.290;6.144;2023-03-05T11:52:52;1.70;;;0.82;;
47431;SDS011;33183;52.290;6.144;2023-03-05T11:55:21;1.42;;;0.70;;
47431;SDS011;33183;52.290;6.144;2023-03-05T12:00:40;2.13;;;1.00;;
47431;SDS011;33183;52.290;6.144;2023-03-05T12:03:10;2.78;;;1.17;;
47431;SDS011;33183;52.290;6.144;2023-03-05T12:05:39;3.20;;;1.23;;
47431;SDS011;33183;52.290;6.144;2023-03-05T12:08:08;4.30;;;1.08;;
47431;SDS011;33183;52.290;6.144;2023-03-05T12:10:37;3.63;;;1.30;;
47431;SDS011;33183;52.290;6.144;2023-03-05T12:18:19;1.77;;;1.10;;
47431;SDS011;33183;52.290;6.144;2023-03-05T12:23:18;1.92;;;0.95;;
47431;SDS011;33183;52.290;6.144;2023-03-05T12:25:52;1.75;;;1.10;;
47431;SDS011;33183;52.290;6.144;2023-03-05T12:31:01;1.65;;;0.80;;
47431;SDS011;33183;52.290;6.144;2023-03-05T12:33:38;1.55;;;0.95;;
47431;SDS011;33183;52.290;6.144;2023-03-05T12:38:47;1.50;;;0.80;;
47431;SDS011;33183;52.290;6.144;2023-03-05T12:46:37;1.52;;;0.80;;
47431;SDS011;33183;52.290;6.144;2023-03-05T12:51:55;2.88;;;0.90;;
47431;SDS011;33183;52.290;6.144;2023-03-05T12:56:59;1.63;;;0.70;;
47431;SDS011;33183;52.290;6.144;2023-03-05T12:59:31;1.45;;;0.63;;
47431;SDS011;33183;52.290;6.144;2023-03-05T13:02:03;2.40;;;0.88;;
47431;SDS011;33183;52.290;6.144;2023-03-05T13:04:45;1.40;;;0.70;;
47431;SDS011;33183;52.290;6.144;2023-03-05T13:07:15;0.98;;;0.60;;
47431;SDS011;33183;52.290;6.144;2023-03-05T13:09:41;1.38;;;0.98;;
47431;SDS011;33183;52.290;6.144;2023-03-05T13:12:25;2.63;;;0.93;;
47431;SDS011;33183;52.290;6.144;2023-03-05T13:14:59;1.10;;;0.60;;
47431;SDS011;33183;52.290;6.144;2023-03-05T13:17:30;1.67;;;0.70;;
47431;SDS011;33183;52.290;6.144;2023-03-05T13:19:57;2.33;;;0.65;;
47431;SDS011;33183;52.290;6.144;2023-03-05T13:22:23;1.50;;;0.63;;
47431;SDS011;33183;52.290;6.144;2023-03-05T13:25:11;2.75;;;0.80;;
47431;SDS011;33183;52.290;6.144;2023-03-05T13:27:38;2.00;;;1.02;;
47431;SDS011;33183;52.290;6.144;2023-03-05T13:30:04;2.47;;;0.77;;
47431;SDS011;33183;52.290;6.144;2023-03-05T13:32:31;2.03;;;1.02;;
47431;SDS011;33183;52.290;6.144;2023-03-05T13:34:58;1.30;;;0.80;;
47431;SDS011;33183;52.290;6.144;2023-03-05T13:37:25;2.47;;;0.60;;
47431;SDS011;33183;52.290;6.144;2023-03-05T13:39:55;2.35;;;1.00;;
47431;SDS011;33183;52.290;6.144;2023-03-05T13:42:29;1.40;;;0.70;;
47431;SDS011;33183;52.290;6.144;2023-03-05T13:44:59;1.40;;;0.50;;
47431;SDS011;33183;52.290;6.144;2023-03-05T13:47:26;1.70;;;0.70;;
47431;SDS011;33183;52.290;6.144;2023-03-05T13:49:57;1.60;;;0.80;;
47431;SDS011;33183;52.290;6.144;2023-03-05T13:52:34;3.60;;;0.70;;
47431;SDS011;33183;52.290;6.144;2023-03-05T13:55:02;1.67;;;0.70;;
47431;SDS011;33183;52.290;6.144;2023-03-05T14:00:01;1.92;;;0.73;;
47431;SDS011;33183;52.290;6.144;2023-03-05T14:02:27;0.98;;;0.60;;
47431;SDS011;33183;52.290;6.144;2023-03-05T14:04:53;1.48;;;0.57;;
47431;SDS011;33183;52.290;6.144;2023-03-05T14:09:45;1.48;;;0.45;;
47431;SDS011;33183;52.290;6.144;2023-03-05T14:15:02;1.42;;;0.57;;
47431;SDS011;33183;52.290;6.144;2023-03-05T14:17:44;1.73;;;0.60;;
47431;SDS011;33183;52.290;6.144;2023-03-05T14:22:36;1.55;;;0.60;;
47431;SDS011;33183;52.290;6.144;2023-03-05T14:25:03;0.95;;;0.52;;
47431;SDS011;33183;52.290;6.144;2023-03-05T14:27:32;1.33;;;0.70;;
47431;SDS011;33183;52.290;6.144;2023-03-05T14:29:59;1.52;;;0.50;;
47431;SDS011;33183;52.290;6.144;2023-03-05T14:32:32;1.10;;;0.57;;
47431;SDS011;33183;52.290;6.144;2023-03-05T14:34:59;0.65;;;0.50;;
47431;SDS011;33183;52.290;6.144;2023-03-05T14:37:30;0.85;;;0.60;;
47431;SDS011;33183;52.290;6.144;2023-03-05T14:40:04;2.85;;;0.60;;
47431;SDS011;33183;52.290;6.144;2023-03-05T14:45:11;2.25;;;0.50;;
47431;SDS011;33183;52.290;6.144;2023-03-05T14:47:44;1.80;;;0.60;;
47431;SDS011;33183;52.290;6.144;2023-03-05T14:50:14;1.02;;;0.57;;
47431;SDS011;33183;52.290;6.144;2023-03-05T14:55:27;0.50;;;0.40;;
47431;SDS011;33183;52.290;6.144;2023-03-05T14:57:58;2.40;;;0.80;;
47431;SDS011;33183;52.290;6.144;2023-03-05T15:00:46;1.52;;;0.55;;
47431;SDS011;33183;52.290;6.144;2023-03-05T15:03:12;1.38;;;0.50;;
47431;SDS011;33183;52.290;6.144;2023-03-05T15:05:39;1.05;;;0.55;;
47431;SDS011;33183;52.290;6.144;2023-03-05T15:08:04;1.10;;;0.70;;
47431;SDS011;33183;52.290;6.144;2023-03-05T15:10:30;1.00;;;0.50;;
47431;SDS011;33183;52.290;6.144;2023-03-05T15:12:55;1.70;;;0.50;;
47431;SDS011;33183;52.290;6.144;2023-03-05T15:15:20;2.15;;;0.50;;
47431;SDS011;33183;52.290;6.144;2023-03-05T15:17:47;1.38;;;0.63;;
47431;SDS011;33183;52.290;6.144;2023-03-05T15:20:19;1.15;;;0.50;;
47431;SDS011;33183;52.290;6.144;2023-03-05T15:22:46;1.35;;;0.50;;
47431;SDS011;33183;52.290;6.144;2023-03-05T15:25:12;0.88;;;0.40;;
47431;SDS011;33183;52.290;6.144;2023-03-05T15:27:37;1.00;;;0.50;;
47431;SDS011;33183;52.290;6.144;2023-03-05T15:30:07;1.25;;;0.60;;
47431;SDS011;33183;52.290;6.144;2023-03-05T15:32:33;1.13;;;0.50;;
47431;SDS011;33183;52.290;6.144;2023-03-05T15:34:58;1.88;;;0.52;;
47431;SDS011;33183;52.290;6.144;2023-03-05T15:37:24;1.17;;;0.50;;
47431;SDS011;33183;52.290;6.144;2023-03-05T15:39:50;1.92;;;1.00;;
47431;SDS011;33183;52.290;6.144;2023-03-05T15:42:16;2.47;;;0.50;;
47431;SDS011;33183;52.290;6.144;2023-03-05T15:44:41;0.85;;;0.57;;
47431;SDS011;33183;52.290;6.144;2023-03-05T15:47:06;1.83;;;0.63;;
47431;SDS011;33183;52.290;6.144;2023-03-05T15:49:32;2.53;;;0.60;;
47431;SDS011;33183;52.290;6.144;2023-03-05T15:51:57;0.90;;;0.65;;
47431;SDS011;33183;52.290;6.144;2023-03-05T15:54:23;0.95;;;0.80;;
47431;SDS011;33183;52.290;6.144;2023-03-05T15:56:48;2.40;;;0.50;;
47431;SDS011;33183;52.290;6.144;2023-03-05T15:59:14;1.20;;;0.60;;
47431;SDS011;33183;52.290;6.144;2023-03-05T16:01:40;1.92;;;0.60;;
47431;SDS011;33183;52.290;6.144;2023-03-05T16:04:06;1.33;;;0.50;;